Overview Statistics Trail Chart Weather Telemetry Raw packets
 

This is the latest recevied weather packets stored in our database for station/object OE3TEC-15. If no packets are shown the sender has not sent any weather packets the latest 10 day(s).

<< 3 4 5 6 7 8 9 >>
Time Temp. Humidity Pressure Rain* Wind** Luminosity Snow
1788391692 15.56° C 74% 1021.2 hPa 0 mm - 0 W/m² -
1788391055 15.56° C 75% 1021.2 hPa 0 mm - 0 W/m² -
1788390451 15° C 76% 1021.1 hPa 0 mm - 0 W/m² -
1788389815 15.56° C 74% 1021.1 hPa 0 mm - 0 W/m² -
1788387990 16.11° C 70% 1021.1 hPa 0 mm - 0 W/m² -
1788383114 18.33° C 65% 1020.5 hPa 0 mm - 0 W/m² -
1788382501 18.33° C 63% 1020.5 hPa 0 mm - 0 W/m² -
1788381295 20° C 57% 1020.3 hPa 0 mm - 0 W/m² -
1788380083 21.11° C 51% 1020.3 hPa 0 mm - 0 W/m² -
1788378207 20.56° C 51% 1020.4 hPa 0 mm - 0 W/m² -
1788376375 20° C 62% 1019.9 hPa 0 mm - 0 W/m² -
1788375775 19.44° C 63% 1019.9 hPa 0 mm - 0 W/m² -
1788374560 18.89° C 68% 1019.7 hPa 0 mm - 0 W/m² -
1788373919 18.89° C 69% 1019.7 hPa 0 mm - 0 W/m² -
1788372679 19.44° C 66% 1019.5 hPa 0 mm - 0 W/m² -
1788372076 20° C 62% 1019.4 hPa 0 mm - 0 W/m² -
1788371436 20.56° C 61% 1019.6 hPa 0 mm - 0 W/m² -
1788368374 22.78° C 55% 1019.1 hPa 0 mm - 10 W/m² -
1788367152 25° C 60% 1019.4 hPa 0 mm - 29 W/m² -
1788365308 27.22° C 38% 1019.4 hPa 0 mm - 45 W/m² -
1788364672 28.33° C 36% 1019.5 hPa 0 mm - 75 W/m² -
1788360975 27.78° C 37% 1019.6 hPa 0 mm - 170 W/m² -
1788359144 28.33° C 35% 1019.7 hPa 0 mm - 267 W/m² -
1788357904 27.78° C 36% 1019.8 hPa 0 mm - 243 W/m² -
1788356665 28.33° C 38% 1020.3 hPa 0 mm - 275 W/m² -

* Rain latest hour (hover to see other rain measurements)
** Current wind speed in m/s (hover to see current wind gust speed)